Time;durP1;ratioP1;P1;durP2;ratioP2;P2;SDS_P1;SDS_P2;PMS_P1;PMS_P2;Temp;Humidity;BMP_temperature;BMP_pressure;BME280_temperature;BME280_humidity;BME280_pressure;Samples;Min_cycle;Max_cycle;Signal;HPM_P1;HPM_P2
2021/09/07 00:01:56;;;;;;;4.70;3.70;;;;;;;14.65;100.00;101756.19;4992138;28;20605;-77
2021/09/07 00:04:29;;;;;;;5.47;4.03;;;;;;;14.59;100.00;101753.69;4975628;28;20212;-77
2021/09/07 00:06:59;;;;;;;4.93;4.50;;;;;;;14.65;100.00;101747.13;4991459;28;20283;-76
2021/09/07 00:09:25;;;;;;;4.80;4.10;;;;;;;14.63;100.00;101750.16;4966586;28;20261;-76
2021/09/07 00:11:55;;;;;;;4.53;4.13;;;;;;;14.55;100.00;101752.59;4955590;28;20226;-76
2021/09/07 00:14:21;;;;;;;4.53;3.73;;;;;;;14.53;100.00;101743.84;4940424;28;20213;-76
2021/09/07 00:16:48;;;;;;;5.30;3.70;;;;;;;14.58;100.00;101738.41;4971590;28;20309;-77
2021/09/07 00:19:16;;;;;;;5.30;4.07;;;;;;;14.63;100.00;101741.13;4961044;28;20574;-76
2021/09/07 00:21:41;;;;;;;5.10;4.60;;;;;;;14.59;100.00;101736.47;4975093;28;20217;-76
2021/09/07 00:24:07;;;;;;;5.07;3.87;;;;;;;14.60;100.00;101730.75;4955510;28;20679;-77
2021/09/07 00:26:32;;;;;;;4.90;4.13;;;;;;;14.62;100.00;101738.69;4971327;28;20715;-76
2021/09/07 00:29:00;;;;;;;5.47;4.30;;;;;;;14.76;100.00;101744.16;4957767;28;20206;-76
2021/09/07 00:31:29;;;;;;;4.63;4.23;;;;;;;14.71;100.00;101740.59;4974355;28;20226;-76
2021/09/07 00:33:55;;;;;;;6.67;3.77;;;;;;;14.74;100.00;101745.50;4991414;28;20644;-78
2021/09/07 00:36:20;;;;;;;4.87;4.10;;;;;;;14.73;100.00;101736.50;4974965;28;20272;-78
2021/09/07 00:38:46;;;;;;;6.77;4.30;;;;;;;14.70;100.00;101733.47;4974427;28;20202;-77
2021/09/07 00:41:12;;;;;;;5.50;4.07;;;;;;;14.64;100.00;101734.56;4970472;28;20222;-77
2021/09/07 00:43:40;;;;;;;4.73;4.33;;;;;;;14.50;100.00;101733.44;4956597;28;20179;-78
2021/09/07 00:46:06;;;;;;;4.73;4.00;;;;;;;14.59;100.00;101737.28;4973003;28;20265;-78
2021/09/07 00:48:32;;;;;;;6.23;4.13;;;;;;;14.67;100.00;101736.78;4990405;28;20192;-75
2021/09/07 00:50:59;;;;;;;4.57;4.13;;;;;;;14.65;100.00;101747.13;4955219;28;20573;-77
2021/09/07 00:53:30;;;;;;;4.33;3.93;;;;;;;14.73;100.00;101731.00;4971877;28;20619;-77
2021/09/07 00:55:57;;;;;;;5.53;3.93;;;;;;;14.64;100.00;101731.84;4990725;28;20244;-77
2021/09/07 00:58:26;;;;;;;5.03;3.80;;;;;;;14.56;100.00;101737.84;4959301;28;20182;-77
2021/09/07 01:00:56;;;;;;;6.20;4.23;;;;;;;14.53;100.00;101737.56;4949075;28;20700;-77
2021/09/07 01:03:23;;;;;;;5.57;4.20;;;;;;;14.56;100.00;101739.75;4941223;28;20668;-77
2021/09/07 01:05:50;;;;;;;6.87;4.30;;;;;;;14.50;100.00;101738.91;4959119;28;20225;-77
2021/09/07 01:08:19;;;;;;;5.37;4.30;;;;;;;14.43;100.00;101727.44;4984376;28;20185;-76
2021/09/07 01:10:47;;;;;;;6.87;4.90;;;;;;;14.57;100.00;101725.81;4982010;28;20205;-76
2021/09/07 01:13:14;;;;;;;5.20;4.70;;;;;;;14.65;100.00;101733.47;5014647;28;20201;-77
2021/09/07 01:15:43;;;;;;;7.83;5.03;;;;;;;14.54;100.00;101728.25;4962521;28;20249;-77
2021/09/07 01:18:13;;;;;;;4.90;4.40;;;;;;;14.54;100.00;101723.63;4941273;28;20567;-77
2021/09/07 01:20:43;;;;;;;6.83;4.87;;;;;;;14.59;100.00;101720.06;4966637;28;20229;-77
2021/09/07 01:23:10;;;;;;;7.43;4.80;;;;;;;14.68;100.00;101722.00;4975220;28;20178;-76
2021/09/07 01:25:36;;;;;;;5.63;5.03;;;;;;;14.73;100.00;101722.81;4991294;28;20694;-77
2021/09/07 01:28:01;;;;;;;6.33;4.80;;;;;;;14.66;100.00;101722.25;4958298;28;20667;-77
2021/09/07 01:30:30;;;;;;;5.70;5.07;;;;;;;14.64;100.00;101708.03;4967672;28;20723;-77
2021/09/07 01:33:00;;;;;;;7.83;5.70;;;;;;;14.73;100.00;101709.13;4955131;28;20688;-77
2021/09/07 01:35:26;;;;;;;8.17;6.10;;;;;;;14.83;100.00;101728.28;4976179;28;20918;-77
2021/09/07 01:37:59;;;;;;;6.97;5.27;;;;;;;14.91;100.00;101718.69;4990611;28;20597;-77
2021/09/07 01:40:28;;;;;;;6.13;5.30;;;;;;;14.87;100.00;101725.81;4970603;28;20249;-77
2021/09/07 01:42:53;;;;;;;5.80;4.30;;;;;;;14.83;100.00;101728.28;4939371;28;20177;-78
2021/09/07 01:45:23;;;;;;;7.77;4.47;;;;;;;14.85;100.00;101728.84;4938127;28;20182;-76
2021/09/07 01:47:53;;;;;;;5.80;4.50;;;;;;;14.83;100.00;101728.28;4955144;28;20202;-77
2021/09/07 01:50:22;;;;;;;6.60;4.60;;;;;;;14.68;100.00;101724.72;4974011;28;20627;-76
2021/09/07 01:52:47;;;;;;;6.27;4.77;;;;;;;14.70;100.00;101728.00;4960419;28;20213;-77
2021/09/07 01:55:16;;;;;;;7.33;5.43;;;;;;;14.72;100.00;101736.75;4993223;28;20268;-78
2021/09/07 01:57:43;;;;;;;5.87;5.20;;;;;;;14.61;100.00;101732.38;4995109;28;20185;-77
2021/09/07 02:00:16;;;;;;;6.87;5.30;;;;;;;14.54;100.00;101734.56;4976649;28;20221;-77
2021/09/07 02:02:41;;;;;;;6.83;5.60;;;;;;;14.62;100.00;101719.53;4974491;28;20217;-77
2021/09/07 02:05:08;;;;;;;6.37;5.37;;;;;;;14.59;100.00;101720.06;4973631;28;20178;-76
2021/09/07 02:07:36;;;;;;;8.10;6.13;;;;;;;14.53;100.00;101721.16;4992619;28;20718;-76
2021/09/07 02:10:07;;;;;;;9.57;7.57;;;;;;;14.61;100.00;101723.34;4992787;28;20209;-76
2021/09/07 02:12:36;;;;;;;7.83;6.57;;;;;;;14.56;100.00;101715.97;4974063;28;20280;-77
2021/09/07 02:15:05;;;;;;;10.03;7.07;;;;;;;14.65;100.00;101720.63;4957975;28;20236;-77
2021/09/07 02:17:31;;;;;;;8.60;6.93;;;;;;;14.54;100.00;101723.63;4942523;28;20218;-77
2021/09/07 02:19:59;;;;;;;9.57;6.97;;;;;;;14.68;100.00;101724.72;4925951;28;20202;-77
2021/09/07 02:22:25;;;;;;;9.17;7.17;;;;;;;14.59;100.00;101725.53;4949186;28;20289;-76
2021/09/07 02:24:51;;;;;;;9.67;6.80;;;;;;;14.55;100.00;101730.72;4957871;28;20237;-76
2021/09/07 02:27:17;;;;;;;7.57;6.73;;;;;;;14.67;100.00;101717.63;4976424;28;20229;-78
2021/09/07 02:29:47;;;;;;;8.47;6.50;;;;;;;14.70;100.00;101728.00;4993004;28;20201;-77
2021/09/07 02:32:14;;;;;;;10.00;6.10;;;;;;;14.60;100.00;101725.28;4993799;28;20232;-77
2021/09/07 02:34:40;;;;;;;8.73;6.93;;;;;;;14.54;100.00;101728.25;4960975;28;20182;-76
2021/09/07 02:37:10;;;;;;;9.47;6.87;;;;;;;14.28;100.00;101721.13;4960338;28;20614;-77
2021/09/07 02:39:36;;;;;;;8.37;6.80;;;;;;;14.55;100.00;101729.91;4961425;28;20202;-76
2021/09/07 02:42:04;;;;;;;9.50;6.33;;;;;;;14.45;100.00;101728.00;4973304;28;20627;-76
2021/09/07 02:44:32;;;;;;;10.37;7.80;;;;;;;14.50;100.00;101730.72;4973505;28;20649;-76
2021/09/07 02:46:59;;;;;;;12.83;8.43;;;;;;;14.59;100.00;101726.34;4981356;28;20589;-77
2021/09/07 02:49:25;;;;;;;11.50;7.90;;;;;;;14.61;100.00;101721.44;4992442;28;20201;-77
2021/09/07 02:51:52;;;;;;;10.23;7.37;;;;;;;14.47;100.00;101723.06;4976254;28;20222;-76
2021/09/07 02:54:20;;;;;;;8.90;6.20;;;;;;;14.46;100.00;101720.59;4977087;28;20273;-77
2021/09/07 02:56:46;;;;;;;10.43;6.90;;;;;;;14.47;100.00;101720.34;4989920;28;20218;-76
2021/09/07 02:59:12;;;;;;;8.33;5.93;;;;;;;14.46;100.00;101715.94;4976244;28;20680;-77
2021/09/07 03:01:42;;;;;;;7.70;6.67;;;;;;;14.34;100.00;101718.13;4972845;28;20226;-76
2021/09/07 03:04:08;;;;;;;8.13;6.47;;;;;;;14.36;100.00;101713.22;4972685;28;20188;-76
2021/09/07 03:06:35;;;;;;;7.67;6.33;;;;;;;14.41;100.00;101707.75;4956259;28;20233;-77
2021/09/07 03:09:01;;;;;;;12.80;7.77;;;;;;;14.32;100.00;101708.53;4972859;28;20209;-76
2021/09/07 03:11:29;;;;;;;10.67;7.50;;;;;;;14.30;100.00;101710.72;4963858;28;20611;-77
2021/09/07 03:13:57;;;;;;;9.33;6.67;;;;;;;14.38;100.00;101716.50;4976888;28;20178;-77
2021/09/07 03:16:25;;;;;;;8.73;6.70;;;;;;;14.33;100.00;101713.75;4976181;28;20699;-76
2021/09/07 03:18:51;;;;;;;7.30;6.03;;;;;;;14.29;100.00;101711.84;4972659;28;20207;-77
2021/09/07 03:21:17;;;;;;;9.67;7.07;;;;;;;14.24;100.00;101715.38;4972664;28;20655;-76
2021/09/07 03:23:43;;;;;;;8.90;6.60;;;;;;;14.22;100.00;101724.13;4957267;28;20233;-76
2021/09/07 03:26:09;;;;;;;8.30;6.90;;;;;;;14.14;100.00;101716.44;4956400;28;20226;-77
2021/09/07 03:28:36;;;;;;;10.73;7.30;;;;;;;14.12;100.00;101724.06;4972628;28;20185;-77
2021/09/07 03:31:03;;;;;;;10.07;7.80;;;;;;;14.21;100.00;101719.72;4976272;28;20300;-77
2021/09/07 03:33:29;;;;;;;7.77;6.70;;;;;;;14.13;100.00;101714.81;4992345;28;20210;-76
2021/09/07 03:35:58;;;;;;;9.57;7.23;;;;;;;14.09;100.00;101728.19;4991782;28;20283;-76
2021/09/07 03:38:23;;;;;;;10.13;6.60;;;;;;;14.03;100.00;101714.78;4994923;28;20185;-77
2021/09/07 03:40:49;;;;;;;7.13;6.43;;;;;;;14.02;100.00;101724.06;4986623;28;20307;-76
2021/09/07 03:43:17;;;;;;;7.17;6.43;;;;;;;14.02;100.00;101724.88;4971033;28;20185;-76
2021/09/07 03:45:46;;;;;;;7.63;6.30;;;;;;;14.02;100.00;101718.59;4977318;28;20219;-76
2021/09/07 03:48:11;;;;;;;9.63;6.97;;;;;;;14.06;100.00;101719.69;4999404;28;20204;-77
2021/09/07 03:50:40;;;;;;;9.13;7.13;;;;;;;14.12;100.00;101713.16;4996028;28;20225;-76
2021/09/07 03:53:08;;;;;;;8.67;6.77;;;;;;;14.23;100.00;101714.81;4986831;28;20251;-77
2021/09/07 03:55:34;;;;;;;9.20;7.50;;;;;;;14.22;100.00;101711.28;4977957;28;20621;-77
2021/09/07 03:58:00;;;;;;;9.60;6.90;;;;;;;14.07;100.00;101716.69;4980908;28;20237;-76
2021/09/07 04:00:28;;;;;;;9.40;6.63;;;;;;;13.97;100.00;101718.53;4996740;28;20206;-76
2021/09/07 04:03:00;;;;;;;9.37;6.20;;;;;;;13.87;100.00;101710.31;5004539;28;20221;-76
2021/09/07 04:05:28;;;;;;;8.30;6.30;;;;;;;13.90;100.00;101704.34;4975065;28;20221;-76
2021/09/07 04:07:57;;;;;;;6.43;5.77;;;;;;;14.19;100.00;101711.81;4971702;28;20236;-76
2021/09/07 04:10:23;;;;;;;8.03;6.13;;;;;;;14.29;100.00;101715.38;4955564;28;20743;-75
2021/09/07 04:12:50;;;;;;;7.60;6.20;;;;;;;14.29;100.00;101709.91;4975699;28;20210;-76
2021/09/07 04:15:15;;;;;;;9.10;6.03;;;;;;;14.24;100.00;101717.28;4990596;28;20190;-76
2021/09/07 04:17:44;;;;;;;7.67;6.33;;;;;;;14.28;100.00;101718.38;4990920;28;20178;-76
2021/09/07 04:20:11;;;;;;;6.57;5.87;;;;;;;14.43;100.00;101721.97;4990403;28;20568;-77
2021/09/07 04:22:37;;;;;;;8.27;6.33;;;;;;;14.45;100.00;101725.25;4975446;28;20236;-76
2021/09/07 04:25:03;;;;;;;8.03;5.97;;;;;;;14.48;100.00;101724.69;4991801;28;20190;-77
2021/09/07 04:27:33;;;;;;;9.60;6.40;;;;;;;14.37;100.00;101731.25;4944279;28;20249;-76
2021/09/07 04:29:59;;;;;;;10.67;6.90;;;;;;;14.37;100.00;101727.69;4939542;28;20297;-77
2021/09/07 04:32:27;;;;;;;8.17;5.77;;;;;;;14.31;100.00;101721.41;4938945;28;20237;-76
2021/09/07 04:34:57;;;;;;;8.63;6.40;;;;;;;14.32;100.00;101728.53;4956212;28;20190;-76
2021/09/07 04:37:27;;;;;;;10.90;6.50;;;;;;;14.20;100.00;101738.06;4955305;28;20218;-76
2021/09/07 04:39:53;;;;;;;9.10;7.27;;;;;;;14.04;100.00;101746.47;4950901;28;20198;-76
2021/09/07 04:42:18;;;;;;;10.10;8.33;;;;;;;14.08;100.00;101758.50;4954763;28;20249;-76
2021/09/07 04:44:45;;;;;;;11.73;8.70;;;;;;;14.09;100.00;101757.44;4959570;28;20256;-77
2021/09/07 04:47:12;;;;;;;10.60;9.23;;;;;;;14.03;100.00;101755.78;4958250;28;20228;-76
2021/09/07 04:49:41;;;;;;;10.30;8.10;;;;;;;13.94;100.00;101758.16;4975165;28;20259;-76
2021/09/07 04:52:11;;;;;;;10.27;8.50;;;;;;;13.89;100.00;101754.59;4991953;28;20725;-75
2021/09/07 04:54:39;;;;;;;12.60;8.53;;;;;;;13.87;100.00;101759.50;4976944;28;20181;-75
2021/09/07 04:57:09;;;;;;;9.97;8.20;;;;;;;13.90;100.00;101759.78;4976529;28;20217;-76
2021/09/07 04:59:35;;;;;;;13.07;8.50;;;;;;;13.92;100.00;101767.72;4976816;28;20214;-75
2021/09/07 05:02:00;;;;;;;10.53;8.33;;;;;;;13.83;100.00;101761.13;4992569;28;20233;-73
2021/09/07 05:04:28;;;;;;;10.80;8.50;;;;;;;13.79;100.00;101762.75;4952413;28;20190;-76
2021/09/07 05:06:54;;;;;;;13.50;9.40;;;;;;;13.73;100.00;101766.50;4958390;28;20236;-75
2021/09/07 05:09:22;;;;;;;12.77;9.07;;;;;;;13.80;100.00;101767.09;4988284;28;20578;-72
2021/09/07 05:11:47;;;;;;;14.97;9.70;;;;;;;13.71;100.00;101767.88;4999938;28;20257;-69
2021/09/07 05:14:16;;;;;;;11.70;8.60;;;;;;;13.80;100.00;101780.75;4991035;28;20178;-76
2021/09/07 05:16:44;;;;;;;13.00;9.67;;;;;;;13.91;100.00;101777.00;4974384;28;20720;-76
2021/09/07 05:19:09;;;;;;;16.23;9.27;;;;;;;13.91;100.00;101777.00;4955072;28;20292;-76
2021/09/07 05:21:38;;;;;;;23.37;12.53;;;;;;;13.85;100.00;101775.31;4968183;28;20225;-76
2021/09/07 05:24:08;;;;;;;36.30;16.77;;;;;;;13.92;100.00;101781.38;4977454;28;20190;-75
2021/09/07 05:26:36;;;;;;;39.37;16.03;;;;;;;13.79;100.00;101784.59;4968085;28;20586;-77
2021/09/07 05:29:02;;;;;;;42.67;17.17;;;;;;;13.87;100.00;101771.22;5004383;28;20208;-77
2021/09/07 05:31:32;;;;;;;175.37;22.30;;;;;;;13.97;100.00;101776.75;4962138;28;20233;-76
2021/09/07 05:33:58;;;;;;;46.57;23.10;;;;;;;14.04;100.00;101777.34;4975869;28;20212;-77
2021/09/07 05:36:27;;;;;;;48.37;21.83;;;;;;;14.14;100.00;101771.09;4985269;28;20222;-76
2021/09/07 05:38:52;;;;;;;148.50;25.33;;;;;;;14.18;100.00;101774.94;4983595;28;20214;-77
2021/09/07 05:41:18;;;;;;;72.80;25.23;;;;;;;14.06;100.00;101779.81;4976119;28;20287;-77
2021/09/07 05:43:44;;;;;;;38.40;23.87;;;;;;;14.45;100.00;101779.09;5009440;28;20671;-78
2021/09/07 05:46:12;;;;;;;69.00;23.93;;;;;;;14.53;100.00;101792.25;4974473;28;20232;-77
2021/09/07 05:48:37;;;;;;;63.60;25.40;;;;;;;14.54;100.00;101783.78;4992847;28;20193;-77
2021/09/07 05:51:03;;;;;;;57.70;24.57;;;;;;;14.57;100.00;101783.22;4976355;28;20281;-77
2021/09/07 05:53:33;;;;;;;39.50;24.03;;;;;;;14.45;100.00;101790.88;4974348;28;20245;-77
2021/09/07 05:56:04;;;;;;;42.10;23.77;;;;;;;14.51;100.00;101778.84;4941810;28;20276;-76
2021/09/07 05:58:29;;;;;;;71.30;25.03;;;;;;;14.60;100.00;101782.72;4973961;28;20179;-77
2021/09/07 06:00:55;;;;;;;67.83;25.17;;;;;;;14.49;100.00;101788.44;4973214;28;20224;-76
2021/09/07 06:03:21;;;;;;;77.93;24.63;;;;;;;14.65;100.00;101786.28;4977763;28;20201;-77
2021/09/07 06:05:49;;;;;;;86.37;24.63;;;;;;;14.72;100.00;101791.47;4986435;28;20218;-78
2021/09/07 06:08:14;;;;;;;67.17;22.63;;;;;;;14.67;100.00;101783.28;4976974;28;20433;-76
2021/09/07 06:10:40;;;;;;;73.47;21.93;;;;;;;14.66;100.00;101787.91;4968545;28;20225;-76
2021/09/07 06:13:10;;;;;;;69.47;23.13;;;;;;;14.72;100.00;101786.00;4977973;28;20225;-76
2021/09/07 06:15:35;;;;;;;51.47;22.53;;;;;;;14.65;100.00;101790.91;4973598;28;20222;-77
2021/09/07 06:18:01;;;;;;;35.37;21.33;;;;;;;14.62;100.00;101798.84;4942117;28;20537;-77
2021/09/07 06:20:26;;;;;;;28.97;21.27;;;;;;;14.74;100.00;101792.00;4945938;28;20234;-76
2021/09/07 06:22:52;;;;;;;28.77;21.50;;;;;;;14.86;100.00;101792.59;4957910;28;20653;-78
2021/09/07 06:25:18;;;;;;;26.73;21.40;;;;;;;15.05;100.00;101799.97;4941702;28;20175;-76
2021/09/07 06:27:44;;;;;;;35.47;19.87;;;;;;;15.23;100.00;101794.78;4957972;28;20298;-77
2021/09/07 06:30:12;;;;;;;23.77;20.23;;;;;;;15.15;100.00;101789.88;4981503;28;20556;-77
2021/09/07 06:32:40;;;;;;;23.77;20.33;;;;;;;15.25;100.00;101803.56;4979563;28;20241;-76
2021/09/07 06:35:06;;;;;;;23.60;20.60;;;;;;;15.44;100.00;101810.94;4946830;28;20212;-78
2021/09/07 06:37:34;;;;;;;25.03;20.03;;;;;;;15.50;100.00;101806.28;4978891;28;20209;-78
2021/09/07 06:40:00;;;;;;;26.53;19.87;;;;;;;15.45;100.00;101815.31;4977257;28;20577;-77
2021/09/07 06:42:31;;;;;;;23.50;20.27;;;;;;;15.43;100.00;101808.47;4978743;28;20206;-77
2021/09/07 06:45:01;;;;;;;22.17;19.87;;;;;;;15.43;100.00;101808.47;4963211;28;20170;-77
2021/09/07 06:47:27;;;;;;;21.23;19.02;;;;;;;15.42;100.00;101804.09;4977967;28;20231;-79
2021/09/07 06:49:52;;;;;;;22.05;19.77;;;;;;;15.52;100.00;101804.09;4986969;28;20229;-78
2021/09/07 06:52:21;;;;;;;25.93;21.53;;;;;;;15.56;100.00;101799.69;5016453;28;20226;-77
2021/09/07 06:54:48;;;;;;;24.25;21.65;;;;;;;15.65;100.00;101798.84;5001060;28;20212;-77
2021/09/07 06:57:14;;;;;;;26.85;22.20;;;;;;;15.87;100.00;101794.66;4995014;28;20283;-78
2021/09/07 06:59:39;;;;;;;25.42;22.73;;;;;;;16.20;100.00;101797.56;4978900;28;20205;-77
2021/09/07 07:02:07;;;;;;;26.10;22.95;;;;;;;16.42;100.00;101800.75;4975765;28;20217;-78
2021/09/07 07:04:33;;;;;;;25.70;22.23;;;;;;;16.37;100.00;101805.44;4996286;28;20220;-78
2021/09/07 07:06:59;;;;;;;25.58;22.83;;;;;;;16.46;100.00;101806.50;4995345;28;20235;-78
2021/09/07 07:09:24;;;;;;;25.02;22.45;;;;;;;16.42;100.00;101810.91;4978088;28;20263;-77
2021/09/07 07:11:50;;;;;;;24.92;22.10;;;;;;;16.42;100.00;101808.19;4992924;28;20221;-77
2021/09/07 07:14:20;;;;;;;24.83;22.23;;;;;;;16.51;100.00;101812.78;4960819;28;20642;-77
2021/09/07 07:16:46;;;;;;;24.23;21.63;;;;;;;16.62;100.00;101817.91;4941884;28;20221;-76
2021/09/07 07:19:12;;;;;;;22.48;19.63;;;;;;;16.78;100.00;101814.00;4968470;28;20203;-76
2021/09/07 07:21:37;;;;;;;21.65;19.45;;;;;;;16.96;100.00;101799.59;4988620;28;20229;-77
2021/09/07 07:24:06;;;;;;;20.35;18.35;;;;;;;17.17;100.00;101809.34;4979671;28;20202;-76
2021/09/07 07:26:31;;;;;;;19.48;17.48;;;;;;;17.30;100.00;101800.44;4982786;28;20244;-77
2021/09/07 07:29:01;;;;;;;18.73;16.27;;;;;;;17.32;100.00;101807.25;4976939;28;20256;-76
2021/09/07 07:31:30;;;;;;;16.38;14.68;;;;;;;17.29;100.00;101801.53;4977057;28;20226;-76
2021/09/07 07:33:58;;;;;;;14.10;12.45;;;;;;;17.03;100.00;101802.81;4977425;28;20217;-77
2021/09/07 07:36:23;;;;;;;14.80;12.13;;;;;;;17.19;100.00;101809.88;4976951;28;20598;-77
2021/09/07 07:38:49;;;;;;;13.65;10.88;;;;;;;17.57;100.00;101812.53;4960107;28;20186;-77
2021/09/07 07:41:15;;;;;;;11.90;10.55;;;;;;;17.72;100.00;101807.69;5007936;28;20218;-77
2021/09/07 07:43:48;;;;;;;11.98;10.07;;;;;;;17.94;100.00;101806.06;4976733;28;20177;-78
2021/09/07 07:46:14;;;;;;;11.20;9.70;;;;;;;18.09;100.00;101807.84;4978004;28;20213;-78
2021/09/07 07:48:42;;;;;;;11.07;9.27;;;;;;;18.12;100.00;101812.78;4963074;28;20572;-78
2021/09/07 07:51:11;;;;;;;10.88;9.70;;;;;;;18.12;100.00;101812.78;4977673;28;20320;-77
2021/09/07 07:53:39;;;;;;;10.20;8.32;;;;;;;18.28;100.00;101812.28;4978755;28;20210;-77
2021/09/07 07:56:05;;;;;;;9.10;7.47;;;;;;;18.36;100.00;101819.88;4993695;28;20316;-76
2021/09/07 07:58:33;;;;;;;9.23;6.97;;;;;;;18.42;100.00;101821.44;4990604;28;20190;-77
2021/09/07 08:01:01;;;;;;;9.38;7.15;;;;;;;18.34;100.00;101822.13;5005097;28;20232;-77
2021/09/07 08:03:29;;;;;;;9.98;7.30;;;;;;;18.56;100.00;101825.94;4956128;28;20183;-79
2021/09/07 08:05:55;;;;;;;7.88;6.45;;;;;;;18.78;100.00;101828.94;4972786;28;20233;-77
2021/09/07 08:08:25;;;;;;;7.22;5.72;;;;;;;18.83;100.00;101831.59;4985427;28;20202;-78
2021/09/07 08:10:53;;;;;;;8.40;5.95;;;;;;;19.15;100.00;101822.28;4959963;28;20258;-77
2021/09/07 08:13:21;;;;;;;6.22;5.03;;;;;;;19.26;100.00;101825.72;4942925;28;20253;-77
2021/09/07 08:15:48;;;;;;;5.47;4.97;;;;;;;19.35;100.00;101820.03;4973589;28;20222;-76
2021/09/07 08:18:14;;;;;;;7.07;5.35;;;;;;;19.49;100.00;101825.59;4973386;28;20186;-78
2021/09/07 08:20:43;;;;;;;5.82;4.40;;;;;;;19.49;100.00;101831.09;4963088;28;20229;-77
2021/09/07 08:23:08;;;;;;;5.85;4.40;;;;;;;19.65;100.00;101832.44;4996099;28;20277;-76
2021/09/07 08:25:36;;;;;;;7.07;4.03;;;;;;;19.60;100.00;101838.09;4961109;28;20698;-78
2021/09/07 08:28:04;;;;;;;5.10;3.40;;;;;;;19.56;100.00;101834.28;4950375;28;20652;-77
2021/09/07 08:30:33;;;;;;;4.57;3.30;;;;;;;19.45;100.00;101830.06;4957001;28;20242;-76
2021/09/07 08:32:59;;;;;;;5.35;4.00;;;;;;;19.52;100.00;101838.75;4984178;28;20209;-75
2021/09/07 08:35:24;;;;;;;4.72;3.33;;;;;;;19.60;100.00;101833.38;4944165;28;20546;-76
2021/09/07 08:37:50;;;;;;;5.55;3.85;;;;;;;19.41;100.00;101840.06;4944109;28;20276;-77
2021/09/07 08:40:18;;;;;;;4.55;3.70;;;;;;;19.79;100.00;101832.16;4990338;28;20304;-76
2021/09/07 08:42:44;;;;;;;5.57;4.20;;;;;;;19.99;100.00;101829.06;4975731;28;20205;-77
2021/09/07 08:45:12;;;;;;;5.20;3.58;;;;;;;20.12;100.00;101831.00;4958854;28;20177;-76
2021/09/07 08:47:37;;;;;;;5.32;3.60;;;;;;;19.89;100.00;101833.94;4975272;28;20190;-76
2021/09/07 08:50:03;;;;;;;5.82;4.13;;;;;;;20.35;100.00;101835.53;4973902;28;20284;-77
2021/09/07 08:52:29;;;;;;;5.50;3.70;;;;;;;20.42;100.00;101846.94;4957125;28;20208;-77
2021/09/07 08:54:54;;;;;;;4.88;3.72;;;;;;;20.31;99.08;101840.00;4980503;28;20590;-79
2021/09/07 08:57:22;;;;;;;4.03;3.63;;;;;;;20.29;96.52;101842.25;4945048;28;20252;-77
2021/09/07 08:59:58;;;;;;;6.05;4.30;;;;;;;20.18;92.99;101840.81;4965249;28;20216;-78
2021/09/07 09:02:26;;;;;;;5.43;4.13;;;;;;;20.28;94.61;101841.44;4985085;28;20224;-78
2021/09/07 09:04:55;;;;;;;7.30;4.55;;;;;;;20.16;97.26;101838.41;4992295;28;20196;-79
2021/09/07 09:07:28;;;;;;;5.70;4.30;;;;;;;20.37;96.65;101839.59;4980532;28;20226;-77
2021/09/07 09:09:55;;;;;;;5.68;4.53;;;;;;;20.47;95.59;101829.16;4981172;28;20213;-77
2021/09/07 09:12:28;;;;;;;5.18;4.18;;;;;;;21.04;92.83;101823.72;4950611;28;20324;-78
2021/09/07 09:14:57;;;;;;;4.97;4.07;;;;;;;20.67;94.33;101830.69;4983744;28;20269;-76
2021/09/07 09:17:30;;;;;;;5.70;4.57;;;;;;;20.76;89.82;101831.59;4998605;28;20665;-76
2021/09/07 09:20:17;;;;;;;5.53;4.20;;;;;;;20.79;92.61;101828.19;4980232;28;20638;-76
2021/09/07 09:22:49;;;;;;;9.27;5.10;;;;;;;20.84;90.47;101828.88;4997051;28;20228;-77
2021/09/07 09:25:23;;;;;;;5.75;4.47;;;;;;;20.80;88.01;101822.34;5013575;28;20244;-77
2021/09/07 09:27:54;;;;;;;7.32;5.00;;;;;;;20.88;91.13;101829.94;4998007;28;20220;-77
2021/09/07 09:30:24;;;;;;;4.93;4.40;;;;;;;21.22;86.92;101819.94;4997627;28;20212;-77
2021/09/07 09:32:50;;;;;;;5.35;4.45;;;;;;;21.56;87.05;101823.00;4965525;28;20241;-78
2021/09/07 09:35:18;;;;;;;5.88;5.07;;;;;;;21.22;88.59;101814.41;4965498;28;20181;-76
2021/09/07 09:37:55;;;;;;;6.15;4.90;;;;;;;21.37;89.63;101823.19;4996921;28;20206;-77
2021/09/07 09:40:21;;;;;;;6.07;4.28;;;;;;;21.77;88.25;101811.06;4963408;28;20607;-77
2021/09/07 09:42:49;;;;;;;5.22;4.68;;;;;;;21.72;86.06;101831.41;4978938;28;20177;-77
2021/09/07 09:45:15;;;;;;;6.95;4.60;;;;;;;21.81;84.96;101823.13;4979285;28;20202;-77
2021/09/07 09:47:45;;;;;;;5.28;4.20;;;;;;;22.01;84.42;101824.22;4979199;28;20190;-78
2021/09/07 09:50:12;;;;;;;5.75;4.20;;;;;;;22.05;82.26;101814.13;4959132;28;20590;-78
2021/09/07 09:52:41;;;;;;;4.38;3.78;;;;;;;21.64;76.28;101817.50;4962716;28;20206;-78
2021/09/07 09:55:14;;;;;;;5.10;4.22;;;;;;;22.03;76.04;101813.63;4963319;28;20193;-78
2021/09/07 09:57:45;;;;;;;3.80;3.40;;;;;;;21.93;75.23;101815.88;4999333;28;20244;-76
2021/09/07 10:00:14;;;;;;;4.97;3.90;;;;;;;21.66;76.33;101816.03;5011624;28;20210;-79
2021/09/07 10:02:40;;;;;;;5.35;3.88;;;;;;;21.74;75.33;101811.72;4987497;28;20705;-78
2021/09/07 10:05:07;;;;;;;4.15;3.53;;;;;;;22.04;75.84;101803.38;5003299;28;20205;-78
2021/09/07 10:07:35;;;;;;;6.63;4.00;;;;;;;21.87;75.56;101813.56;4995033;28;20600;-78
2021/09/07 10:10:01;;;;;;;5.03;3.35;;;;;;;21.74;76.95;101811.72;4961395;28;20221;-78
2021/09/07 10:12:45;;;;;;;5.18;3.70;;;;;;;21.65;78.55;101805.31;4983801;28;20230;-78
2021/09/07 10:15:26;;;;;;;5.85;3.90;;;;;;;21.42;77.63;101802.88;4950941;28;20190;-77
2021/09/07 10:21:07;;;;;;;6.30;3.63;;;;;;;21.93;75.48;101803.97;4975758;28;20595;-77
2021/09/07 10:23:49;;;;;;;3.97;3.22;;;;;;;22.07;73.94;101795.25;4960407;28;20177;-77
2021/09/07 10:26:14;;;;;;;4.03;3.30;;;;;;;22.40;72.19;101793.75;4993052;28;20746;-77
2021/09/07 10:28:42;;;;;;;4.53;3.38;;;;;;;22.56;70.31;101792.13;4945317;28;20181;-77
2021/09/07 10:31:14;;;;;;;3.45;3.15;;;;;;;22.39;67.34;101791.28;4994399;28;20233;-77
2021/09/07 10:33:47;;;;;;;4.40;3.00;;;;;;;22.69;67.15;101786.47;4962595;28;20210;-78
2021/09/07 10:36:16;;;;;;;3.72;2.95;;;;;;;22.60;67.08;101784.78;4979565;28;20779;-79
2021/09/07 10:38:46;;;;;;;3.33;2.95;;;;;;;22.42;68.35;101792.28;4979223;28;20208;-79
2021/09/07 10:41:34;;;;;;;3.30;2.90;;;;;;;22.59;66.64;101791.50;4996864;28;20232;-78
2021/09/07 10:44:08;;;;;;;5.40;3.00;;;;;;;22.58;68.13;101789.84;4993664;28;20182;-78
2021/09/07 10:46:40;;;;;;;4.07;3.20;;;;;;;22.95;65.82;101802.00;4946231;28;20236;-78
2021/09/07 10:49:15;;;;;;;4.70;3.20;;;;;;;23.22;65.51;101796.09;4995225;28;20292;-79
2021/09/07 10:52:12;;;;;;;4.53;3.10;;;;;;;22.89;64.63;101791.38;4977817;28;20224;-77
2021/09/07 10:54:53;;;;;;;2.90;2.60;;;;;;;22.84;64.71;101791.53;4992875;28;20197;-74
2021/09/07 10:57:37;;;;;;;3.65;3.20;;;;;;;23.00;66.26;101782.44;4961063;28;20304;-79
2021/09/07 11:00:23;;;;;;;3.90;3.13;;;;;;;23.23;67.04;101781.09;4992422;28;20205;-74
2021/09/07 11:02:49;;;;;;;4.55;2.80;;;;;;;23.65;65.54;101784.59;4977914;28;20245;-71
2021/09/07 11:05:23;;;;;;;3.08;2.78;;;;;;;23.98;63.53;101782.84;4998233;28;20243;-71
2021/09/07 11:08:05;;;;;;;5.85;3.20;;;;;;;24.02;61.40;101781.03;4996335;28;20189;-71
2021/09/07 11:10:34;;;;;;;3.75;3.10;;;;;;;24.08;63.59;101769.41;4974308;28;20229;-71
2021/09/07 11:13:03;;;;;;;3.42;3.13;;;;;;;23.86;61.57;101766.06;4987611;28;20213;-71
2021/09/07 11:15:33;;;;;;;3.80;3.13;;;;;;;23.79;60.99;101774.13;4967754;28;20232;-70
2021/09/07 11:18:03;;;;;;;4.47;3.05;;;;;;;23.88;61.39;101772.09;5004476;28;20188;-71
2021/09/07 11:20:33;;;;;;;3.50;3.20;;;;;;;23.86;61.85;101774.38;5006305;28;20224;-71
2021/09/07 11:23:16;;;;;;;3.60;3.13;;;;;;;23.14;63.25;101769.19;4992122;28;20185;-71